createdAt,value
2022-11-28T00:02:05.398Z,73.1
2022-11-28T00:07:05.429Z,73
2022-11-28T00:12:05.352Z,73.2
2022-11-28T00:17:15.377Z,73.3
2022-11-28T00:22:15.684Z,75
2022-11-28T00:27:15.597Z,75.3
2022-11-28T00:33:05.301Z,76.3
2022-11-28T00:38:05.436Z,76.5
2022-11-28T00:43:15.582Z,77.3
2022-11-28T00:48:15.616Z,78.9
2022-11-28T00:54:05.433Z,78.8
2022-11-28T00:59:15.630Z,79.3
2022-11-28T01:05:05.345Z,80.2
2022-11-28T01:10:15.733Z,80.3
2022-11-28T01:16:15.437Z,80.5
2022-11-28T01:21:22.398Z,80.9
2022-11-28T01:27:05.386Z,81.2
2022-11-28T01:32:15.661Z,80.7
2022-11-28T01:38:05.298Z,80.3
2022-11-28T01:43:05.456Z,80.5
2022-11-28T01:48:15.625Z,80.8
2022-11-28T01:54:05.306Z,80.9
2022-11-28T01:59:05.454Z,81.9
2022-11-28T02:04:05.346Z,81
2022-11-28T02:09:15.589Z,82.4
2022-11-28T02:15:05.439Z,82.7
2022-11-28T02:20:05.370Z,83.6
2022-11-28T02:25:15.563Z,82.9
2022-11-28T02:30:15.738Z,84.3
2022-11-28T02:36:05.053Z,83.3
2022-11-28T02:41:05.098Z,83.4
2022-11-28T02:46:15.680Z,82
2022-11-28T02:52:05.050Z,84
2022-11-28T02:57:05.155Z,82.4
2022-11-28T03:02:15.527Z,83.3
2022-11-28T03:07:15.434Z,83.2
2022-11-28T03:12:15.408Z,82.7
2022-11-28T03:18:05.183Z,82.9
2022-11-28T03:23:05.082Z,83.5
2022-11-28T03:28:05.096Z,81.5
2022-11-28T03:33:15.543Z,81.5
2022-11-28T03:38:15.478Z,81.9
2022-11-28T03:44:05.033Z,82.7
2022-11-28T03:49:05.405Z,82.6
2022-11-28T03:54:15.535Z,82.7
2022-11-28T03:59:15.548Z,82
2022-11-28T04:05:05.403Z,80.6
2022-11-28T04:10:05.332Z,80.3
2022-11-28T04:15:05.393Z,81
2022-11-28T04:20:15.691Z,81
2022-11-28T04:26:05.410Z,80.7
2022-11-28T04:31:15.428Z,80.5
2022-11-28T04:36:15.504Z,80.8
2022-11-28T04:42:05.301Z,79.1
2022-11-28T04:47:15.343Z,79.4
2022-11-28T04:52:15.678Z,80.3
2022-11-28T04:57:15.562Z,80.1
2022-11-28T05:02:15.665Z,81.6
2022-11-28T05:08:05.507Z,80.1
2022-11-28T05:13:05.312Z,80.3
2022-11-28T05:18:15.561Z,79
2022-11-28T05:24:05.266Z,80.4
2022-11-28T05:29:05.262Z,80.4
2022-11-28T05:34:05.280Z,81.2
2022-11-28T05:39:15.675Z,80.6
2022-11-28T05:44:15.583Z,81
2022-11-28T05:50:05.237Z,81.3
2022-11-28T05:55:05.382Z,81.4
2022-11-28T06:00:05.418Z,81
2022-11-28T06:05:41.069Z,80
2022-11-28T06:11:05.377Z,80.3
2022-11-28T06:16:15.758Z,80.1
2022-11-28T06:22:05.059Z,78.2
2022-11-28T06:27:05.375Z,79.8
2022-11-28T06:32:05.336Z,79.5
2022-11-28T06:37:15.619Z,80.4
2022-11-28T06:43:05.227Z,79.9
2022-11-28T06:48:15.538Z,79.9
2022-11-28T06:54:05.275Z,80.6
2022-11-28T06:59:15.759Z,80.1
2022-11-28T07:05:05.287Z,80.2
2022-11-28T07:10:15.506Z,80.8
2022-11-28T07:16:05.410Z,81.3
2022-11-28T07:21:15.562Z,81.4
2022-11-28T07:27:05.073Z,82.9
2022-11-28T07:32:05.273Z,83.3
2022-11-28T07:37:15.561Z,83.9
2022-11-28T07:43:05.318Z,83.7
2022-11-28T07:48:15.564Z,84
2022-11-28T07:53:15.558Z,84.3
2022-11-28T07:59:05.259Z,83.7
2022-11-28T08:04:05.344Z,83.8
2022-11-28T08:09:15.540Z,83.5
2022-11-28T08:14:15.553Z,82.8
2022-11-28T08:20:05.039Z,85.3
2022-11-28T08:25:05.042Z,85.6
2022-11-28T08:30:05.354Z,84.8
2022-11-28T08:35:05.337Z,84.3
2022-11-28T08:40:05.415Z,83
2022-11-28T08:45:15.276Z,83.4
2022-11-28T08:50:15.706Z,82.5
2022-11-28T08:56:05.035Z,83.7
2022-11-28T09:01:05.186Z,83.1
2022-11-28T09:06:15.455Z,82.7
2022-11-28T09:12:05.087Z,83.8
2022-11-28T09:17:05.143Z,81.3
2022-11-28T09:22:15.318Z,82
2022-11-28T09:27:15.365Z,83.1
2022-11-28T09:32:15.352Z,82.4
2022-11-28T09:38:05.135Z,81.7
2022-11-28T09:43:15.397Z,80.4
2022-11-28T09:48:15.369Z,80.8
2022-11-28T09:53:15.492Z,80.8
2022-11-28T09:59:05.268Z,81.3
2022-11-28T10:04:15.804Z,81.1
2022-11-28T10:10:05.411Z,81.9
2022-11-28T10:15:15.554Z,81.2
2022-11-28T10:21:05.247Z,82.3
2022-11-28T10:26:05.362Z,82.1
2022-11-28T10:31:15.412Z,82.6
2022-11-28T10:36:15.534Z,82.9
2022-11-28T10:41:24.948Z,83
2022-11-28T10:47:05.283Z,82.4
2022-11-28T10:52:15.561Z,84.5
2022-11-28T10:58:05.336Z,83
2022-11-28T11:03:15.571Z,82.3
2022-11-28T11:08:15.627Z,82.5
2022-11-28T11:14:05.230Z,82
2022-11-28T11:19:05.478Z,83.3
2022-11-28T11:24:05.262Z,82.5
2022-11-28T11:29:15.520Z,84.1
2022-11-28T11:34:15.555Z,83.8
2022-11-28T11:40:05.134Z,85.8
2022-11-28T11:45:05.293Z,85.2
2022-11-28T11:50:05.346Z,85.6
2022-11-28T11:55:15.575Z,85.2
2022-11-28T12:01:05.055Z,85.1
2022-11-28T12:06:18.720Z,85.5
2022-11-28T12:11:15.301Z,84.8
2022-11-28T12:16:15.684Z,83.7
2022-11-28T12:22:05.336Z,84.5
2022-11-28T12:27:05.319Z,84.9
2022-11-28T12:32:05.356Z,85.5
2022-11-28T12:37:15.524Z,85.3
2022-11-28T12:43:05.018Z,86.5
2022-11-28T12:48:05.247Z,85.6
2022-11-28T12:53:05.292Z,86.6
2022-11-28T12:58:15.504Z,85.2
2022-11-28T13:03:15.573Z,85.5
2022-11-28T13:08:15.630Z,86
2022-11-28T13:14:15.595Z,86
2022-11-28T13:20:05.076Z,85.8
2022-11-28T13:25:05.502Z,87.3
2022-11-28T13:30:15.418Z,87.2
2022-11-28T13:36:05.831Z,84.9
2022-11-28T13:41:43.288Z,87.1
2022-11-28T13:46:15.567Z,86.8
2022-11-28T13:51:19.873Z,86.4
2022-11-28T13:56:25.226Z,85.6
2022-11-28T14:02:05.437Z,85.6
2022-11-28T14:07:05.310Z,85.9
2022-11-28T14:12:15.564Z,87.1
2022-11-28T14:18:18.905Z,86.1
2022-11-28T14:23:15.542Z,85.8
2022-11-28T14:28:15.613Z,86.8
2022-11-28T14:34:05.296Z,86.2
2022-11-28T14:39:15.387Z,87.3
2022-11-28T14:44:15.523Z,86.7
2022-11-28T14:50:05.117Z,87.6
2022-11-28T14:55:05.227Z,85.9
2022-11-28T15:00:15.511Z,87.1
2022-11-28T15:05:15.324Z,86.1
2022-11-28T15:11:05.004Z,87.6
2022-11-28T15:16:05.153Z,87.2
2022-11-28T15:21:05.741Z,87.2
2022-11-28T15:26:15.262Z,87.6
2022-11-28T15:32:05.035Z,86.8
2022-11-28T15:37:05.052Z,87.7
2022-11-28T15:42:15.300Z,86.7
2022-11-28T15:47:15.402Z,87.5
2022-11-28T15:53:05.010Z,86.7
2022-11-28T15:58:15.304Z,87.5
2022-11-28T16:03:15.365Z,87.1
2022-11-28T16:08:15.394Z,88.1
2022-11-28T16:13:15.345Z,88.7
2022-11-28T16:18:15.472Z,86.4
2022-11-28T16:23:15.519Z,87.2
2022-11-28T16:28:15.534Z,87.7
2022-11-28T16:34:05.145Z,87
2022-11-28T16:39:15.517Z,87.4
2022-11-28T16:44:15.510Z,87
2022-11-28T16:50:05.334Z,86.8
2022-11-28T16:55:15.539Z,87.5
2022-11-28T17:00:15.503Z,87.1
2022-11-28T17:06:05.230Z,87.1
2022-11-28T17:11:05.652Z,87.1
2022-11-28T17:16:15.603Z,87.6
2022-11-28T17:21:15.683Z,88.1
2022-11-28T17:27:05.241Z,87.1
2022-11-28T17:32:05.273Z,87.4
2022-11-28T17:37:15.400Z,86.6
2022-11-28T17:42:16.209Z,88.5
2022-11-28T17:48:05.202Z,89.5
2022-11-28T17:53:05.210Z,88
2022-11-28T17:58:05.290Z,87.8
2022-11-28T18:03:12.360Z,87.2
2022-11-28T18:08:20.496Z,88.1
2022-11-28T18:13:15.439Z,88.5
2022-11-28T18:19:05.199Z,88.5
2022-11-28T18:24:15.471Z,88.2
2022-11-28T18:29:15.522Z,88.7
2022-11-28T18:35:05.199Z,87.6
2022-11-28T18:40:09.128Z,87.8
2022-11-28T18:45:15.561Z,88.1
2022-11-28T18:50:24.789Z,87.5
2022-11-28T18:56:05.087Z,88.6
2022-11-28T19:01:05.277Z,88.6
2022-11-28T19:06:15.520Z,88.7
2022-11-28T19:12:05.205Z,88.2
2022-11-28T19:17:05.285Z,87.5
2022-11-28T19:22:05.280Z,88
2022-11-28T19:27:15.498Z,88
2022-11-28T19:33:05.243Z,85.8
2022-11-28T19:38:15.358Z,87.7
2022-11-28T19:43:15.478Z,88.4
2022-11-28T19:48:15.524Z,87.2
2022-11-28T19:53:15.493Z,89
2022-11-28T19:59:05.216Z,87.6
2022-11-28T20:04:15.321Z,88.2
2022-11-28T20:09:15.518Z,88.3
2022-11-28T20:15:05.196Z,88.1
2022-11-28T20:20:15.506Z,86.8
2022-11-28T20:26:05.319Z,87.6
2022-11-28T20:31:15.571Z,88.5
2022-11-28T20:36:15.534Z,88.8
2022-11-28T20:42:05.252Z,88.1
2022-11-28T20:47:15.490Z,87.2
2022-11-28T20:53:05.031Z,88.9
2022-11-28T20:58:05.054Z,88.9
2022-11-28T21:03:15.541Z,88
2022-11-28T21:08:15.584Z,88.9
2022-11-28T21:14:04.991Z,87.6
2022-11-28T21:19:05.008Z,85.9
2022-11-28T21:24:05.069Z,87
2022-11-28T21:29:15.291Z,86.7
2022-11-28T21:34:15.346Z,86.8
2022-11-28T21:39:15.395Z,88.6
2022-11-28T21:45:05.239Z,89.3
2022-11-28T21:50:15.273Z,89
2022-11-28T21:55:15.302Z,89.1
2022-11-28T22:00:38.186Z,89
2022-11-28T22:05:24.767Z,90.2
2022-11-28T22:11:05.082Z,88.8
2022-11-28T22:16:05.205Z,88.3
2022-11-28T22:21:22.450Z,89.4
2022-11-28T22:26:15.374Z,88
2022-11-28T22:32:05.022Z,88.9
2022-11-28T22:37:05.242Z,87.9
2022-11-28T22:42:15.564Z,88.7
2022-11-28T22:48:05.207Z,87.7
2022-11-28T22:53:05.226Z,89.1
2022-11-28T22:58:05.286Z,88.9
2022-11-28T23:03:15.704Z,88.4
2022-11-28T23:09:05.221Z,88.2
2022-11-28T23:14:05.225Z,88.5
2022-11-28T23:19:05.221Z,88
2022-11-28T23:24:05.246Z,88.1
2022-11-28T23:29:05.279Z,88.2
2022-11-28T23:34:15.526Z,88.4
2022-11-28T23:40:05.197Z,88.1
2022-11-28T23:45:05.216Z,87.6
2022-11-28T23:50:15.540Z,87.8
2022-11-28T23:56:05.240Z,87.5
